createdAt,value
2022-11-05T00:01:08.623Z,99030.53
2022-11-05T00:04:14.481Z,99025.13
2022-11-05T00:07:22.293Z,99030.03
2022-11-05T00:10:20.320Z,99031.53
2022-11-05T00:13:26.412Z,99016.66
2022-11-05T00:16:32.995Z,99019.09
2022-11-05T00:19:19.239Z,99005.63
2022-11-05T00:22:24.698Z,99004.66
2022-11-05T00:25:17.009Z,99006.78
2022-11-05T00:28:03.939Z,99003.84
2022-11-05T00:30:49.893Z,99004.34
2022-11-05T00:33:37.610Z,99005.41
2022-11-05T00:36:23.531Z,99009.38
2022-11-05T00:39:10.669Z,99017.69
2022-11-05T00:42:16.756Z,99012.19
2022-11-05T00:45:04.240Z,99014.12
2022-11-05T00:48:09.798Z,99019.78
2022-11-05T00:50:56.758Z,99020.22
2022-11-05T00:53:44.983Z,99015.28
2022-11-05T00:56:32.482Z,99009.00
2022-11-05T00:59:19.111Z,99009.81
2022-11-05T01:02:06.680Z,99003.56
2022-11-05T01:04:52.782Z,99011.84
2022-11-05T01:07:40.032Z,99018.91
2022-11-05T01:10:28.653Z,99023.03
2022-11-05T01:13:16.643Z,99022.12
2022-11-05T01:16:07.225Z,99022.03
2022-11-05T01:18:53.451Z,99021.34
2022-11-05T01:21:39.842Z,99031.53
2022-11-05T01:24:26.212Z,99031.84
2022-11-05T01:27:12.035Z,99025.78
2022-11-05T01:29:58.541Z,99021.44
2022-11-05T01:32:44.534Z,99029.50
2022-11-05T01:35:31.753Z,99021.53
2022-11-05T01:38:18.313Z,99020.03
2022-11-05T01:41:07.010Z,99015.53
2022-11-05T01:43:54.709Z,99019.13
2022-11-05T01:46:49.735Z,99024.25
2022-11-05T01:49:35.810Z,99028.41
2022-11-05T01:52:23.531Z,99052.81
2022-11-05T01:55:11.404Z,99068.97
2022-11-05T01:57:57.682Z,99046.88
2022-11-05T02:00:48.648Z,99041.81
2022-11-05T02:03:35.809Z,99032.00
2022-11-05T02:06:24.663Z,99049.28
2022-11-05T02:09:34.310Z,99041.50
2022-11-05T02:12:20.839Z,99052.44
2022-11-05T02:15:12.811Z,99057.78
2022-11-05T02:17:59.660Z,99053.03
2022-11-05T02:21:04.146Z,99050.50
2022-11-05T02:23:56.534Z,99049.59
2022-11-05T02:26:45.399Z,99058.25
2022-11-05T02:29:40.206Z,99048.41
2022-11-05T02:32:26.223Z,99051.78
2022-11-05T02:35:30.719Z,99046.06
2022-11-05T02:38:20.339Z,99054.00
2022-11-05T02:41:06.781Z,99041.91
2022-11-05T02:43:58.961Z,99052.22
2022-11-05T02:46:51.846Z,99053.03
2022-11-05T02:49:47.485Z,99051.69
2022-11-05T02:52:43.272Z,99063.87
2022-11-05T02:55:43.272Z,99057.63
2022-11-05T02:58:29.176Z,99065.84
2022-11-05T03:01:17.127Z,99071.87
2022-11-05T03:04:05.336Z,99071.00
2022-11-05T03:06:55.963Z,99069.16
2022-11-05T03:09:53.776Z,99069.03
2022-11-05T03:12:43.582Z,99067.34
2022-11-05T03:15:46.863Z,99068.72
2022-11-05T03:18:35.946Z,99067.53
2022-11-05T03:21:36.384Z,99070.87
2022-11-05T03:24:26.806Z,99071.50
2022-11-05T03:27:14.629Z,99082.41
2022-11-05T03:30:01.715Z,99089.34
2022-11-05T03:32:49.345Z,99087.37
2022-11-05T03:35:37.072Z,99092.69
2022-11-05T03:38:26.911Z,99088.63
2022-11-05T03:41:13.680Z,99090.75
2022-11-05T03:44:03.093Z,99090.56
2022-11-05T03:46:49.891Z,99082.31
2022-11-05T03:49:38.347Z,99091.78
2022-11-05T03:52:25.553Z,99101.37
2022-11-05T03:55:12.027Z,99105.00
2022-11-05T03:57:58.426Z,99090.50
2022-11-05T04:00:45.376Z,99097.81
2022-11-05T04:03:36.479Z,99109.66
2022-11-05T04:06:42.445Z,99097.22
2022-11-05T04:09:47.585Z,99091.19
2022-11-05T04:12:52.515Z,99086.72
2022-11-05T04:15:58.906Z,99084.50
2022-11-05T04:18:45.027Z,99088.53
2022-11-05T04:21:50.204Z,99091.16
2022-11-05T04:24:36.561Z,99093.63
2022-11-05T04:27:23.796Z,99088.22
2022-11-05T04:30:18.903Z,99084.22
2022-11-05T04:33:12.801Z,99094.69
2022-11-05T04:36:00.356Z,99080.38
2022-11-05T04:38:50.264Z,99070.75
2022-11-05T04:41:36.057Z,99071.63
2022-11-05T04:44:22.883Z,99072.13
2022-11-05T04:47:08.685Z,99081.81
2022-11-05T04:49:55.044Z,99073.09
2022-11-05T04:52:44.823Z,99081.38
2022-11-05T04:55:31.344Z,99080.50
2022-11-05T04:58:20.975Z,99091.12
2022-11-05T05:01:07.829Z,99083.88
2022-11-05T05:03:54.323Z,99082.41
2022-11-05T05:06:41.941Z,99078.37
2022-11-05T05:09:28.086Z,99073.19
2022-11-05T05:12:14.353Z,99075.97
2022-11-05T05:15:00.255Z,99064.53
2022-11-05T05:17:53.175Z,99070.75
2022-11-05T05:20:58.030Z,99069.94
2022-11-05T05:23:44.828Z,99074.03
2022-11-05T05:26:31.065Z,99089.25
2022-11-05T05:29:21.605Z,99099.47
2022-11-05T05:32:07.613Z,99094.37
2022-11-05T05:34:57.606Z,99096.63
2022-11-05T05:37:44.446Z,99096.00
2022-11-05T05:40:30.944Z,99092.06
2022-11-05T05:43:17.124Z,99099.84
2022-11-05T05:46:07.782Z,99101.47
2022-11-05T05:48:56.803Z,99102.25
2022-11-05T05:51:50.605Z,99114.69
2022-11-05T05:54:42.324Z,99126.69
2022-11-05T05:57:30.355Z,99128.97
2022-11-05T06:00:18.058Z,99143.81
2022-11-05T06:03:10.157Z,99141.38
2022-11-05T06:06:06.593Z,99160.41
2022-11-05T06:08:58.575Z,99168.09
2022-11-05T06:11:49.618Z,99174.16
2022-11-05T06:14:47.860Z,99178.22
2022-11-05T06:17:35.284Z,99181.41
2022-11-05T06:20:22.336Z,99183.78
2022-11-05T06:23:08.921Z,99191.97
2022-11-05T06:25:59.029Z,99199.09
2022-11-05T06:28:48.605Z,99205.75
2022-11-05T06:31:38.437Z,99200.13
2022-11-05T06:34:25.755Z,99197.56
2022-11-05T06:37:13.736Z,99202.19
2022-11-05T06:40:01.824Z,99211.31
2022-11-05T06:42:51.827Z,99207.72
2022-11-05T06:45:41.562Z,99213.41
2022-11-05T06:48:29.617Z,99211.72
2022-11-05T06:51:16.093Z,99214.34
2022-11-05T06:54:04.004Z,99216.47
2022-11-05T06:56:58.660Z,99235.53
2022-11-05T07:00:07.313Z,99231.00
2022-11-05T07:03:06.610Z,99230.78
2022-11-05T07:05:57.784Z,99234.34
2022-11-05T07:08:45.928Z,99236.16
2022-11-05T07:11:34.026Z,99247.97
2022-11-05T07:14:21.669Z,99250.97
2022-11-05T07:17:20.042Z,99243.31
2022-11-05T07:20:16.449Z,99244.22
2022-11-05T07:23:07.843Z,99241.63
2022-11-05T07:25:55.129Z,99246.59
2022-11-05T07:28:43.037Z,99249.06
2022-11-05T07:31:33.151Z,99255.59
2022-11-05T07:34:33.615Z,99251.84
2022-11-05T07:37:19.868Z,99251.84
2022-11-05T07:40:07.818Z,99248.53
2022-11-05T07:43:01.613Z,99245.28
2022-11-05T07:45:54.613Z,99248.03
2022-11-05T07:48:43.603Z,99252.75
2022-11-05T07:51:34.607Z,99253.03
2022-11-05T07:54:26.680Z,99254.97
2022-11-05T07:57:20.925Z,99254.69
2022-11-05T08:03:19.372Z,99255.19
2022-11-05T08:06:12.591Z,99248.84
2022-11-05T08:09:10.603Z,99248.63
2022-11-05T08:12:02.684Z,99248.69
2022-11-05T08:14:52.054Z,99242.94
2022-11-05T08:17:49.633Z,99237.09
2022-11-05T08:20:38.771Z,99229.31
2022-11-05T08:23:28.593Z,99228.50
2022-11-05T08:26:27.568Z,99224.75
2022-11-05T08:29:16.010Z,99224.25
2022-11-05T08:32:02.941Z,99219.81
2022-11-05T08:34:58.611Z,99218.06
2022-11-05T08:38:06.616Z,99236.03
2022-11-05T08:40:54.892Z,99242.88
2022-11-05T08:43:43.634Z,99242.22
2022-11-05T08:46:41.525Z,99236.44
2022-11-05T08:49:31.001Z,99248.72
2022-11-05T08:52:19.874Z,99247.19
2022-11-05T08:55:12.505Z,99245.66
2022-11-05T08:58:13.614Z,99246.56
2022-11-05T09:01:11.877Z,99255.41
2022-11-05T09:04:12.573Z,99260.59
2022-11-05T09:06:59.981Z,99260.53
2022-11-05T09:09:46.831Z,99275.25
2022-11-05T09:12:41.690Z,99284.06
2022-11-05T09:15:29.099Z,99276.50
2022-11-05T09:18:17.558Z,99286.44
2022-11-05T09:21:04.352Z,99277.63
2022-11-05T09:23:59.121Z,99279.09
2022-11-05T09:26:48.471Z,99275.59
2022-11-05T09:29:39.994Z,99289.91
2022-11-05T09:32:35.995Z,99283.19
2022-11-05T09:35:23.206Z,99290.66
2022-11-05T09:38:21.184Z,99296.91
2022-11-05T09:41:13.055Z,99295.88
2022-11-05T09:44:02.909Z,99288.56
2022-11-05T09:47:09.656Z,99277.78
2022-11-05T09:49:56.472Z,99271.78
2022-11-05T09:52:47.541Z,99269.66
2022-11-05T09:55:51.619Z,99267.22
2022-11-05T09:58:44.629Z,99278.00
2022-11-05T10:01:38.753Z,99270.25
2022-11-05T10:04:27.601Z,99275.56
2022-11-05T10:07:17.557Z,99273.19
2022-11-05T10:10:05.524Z,99269.63
2022-11-05T10:12:58.128Z,99257.69
2022-11-05T10:16:06.869Z,99264.09
2022-11-05T10:22:12.683Z,99262.66
2022-11-05T10:25:01.814Z,99262.66
2022-11-05T10:27:50.939Z,99263.66
2022-11-05T10:30:37.743Z,99262.59
2022-11-05T10:39:27.956Z,99266.72
2022-11-05T10:42:21.910Z,99254.22
2022-11-05T10:45:34.795Z,99259.03
2022-11-05T10:51:36.595Z,99281.72
2022-11-05T10:54:38.157Z,99273.91
2022-11-05T10:57:47.710Z,99274.38
2022-11-05T11:00:36.794Z,99265.84
2022-11-05T11:03:40.989Z,99271.44
2022-11-05T11:06:31.635Z,99293.47
2022-11-05T11:09:24.359Z,99291.44
2022-11-05T11:12:17.144Z,99274.59
2022-11-05T11:15:17.710Z,99258.72
2022-11-05T11:18:27.937Z,99264.38
2022-11-05T11:21:23.360Z,99286.63
2022-11-05T11:24:19.697Z,99264.72
2022-11-05T11:27:14.133Z,99265.03
2022-11-05T11:33:08.341Z,99278.00
2022-11-05T11:36:11.909Z,99265.97
2022-11-05T11:39:06.625Z,99275.13
2022-11-05T11:41:58.743Z,99279.03
2022-11-05T11:44:47.032Z,99268.97
2022-11-05T11:47:35.003Z,99261.00
2022-11-05T11:50:42.781Z,99261.53
2022-11-05T11:53:42.659Z,99261.84
2022-11-05T11:56:43.970Z,99254.78
2022-11-05T12:00:07.077Z,99259.44
2022-11-05T12:03:12.214Z,99274.25
2022-11-05T12:06:16.598Z,99273.75
2022-11-05T12:09:19.793Z,99274.38
2022-11-05T12:15:12.129Z,99274.12
2022-11-05T12:18:01.716Z,99271.88
2022-11-05T12:21:10.589Z,99276.06
2022-11-05T12:24:14.569Z,99287.81
2022-11-05T12:27:16.708Z,99303.75
2022-11-05T12:30:18.620Z,99302.31
2022-11-05T12:33:19.277Z,99316.03
2022-11-05T12:36:32.058Z,99306.97
2022-11-05T12:39:28.865Z,99304.09
2022-11-05T12:42:30.914Z,99293.78
2022-11-05T12:45:20.617Z,99299.28
2022-11-05T12:48:36.908Z,99307.34
2022-11-05T12:51:44.538Z,99302.81
2022-11-05T12:54:48.422Z,99320.41
2022-11-05T13:00:35.861Z,99331.69
2022-11-05T13:03:29.544Z,99337.31
2022-11-05T13:06:32.005Z,99331.22
2022-11-05T13:09:29.577Z,99325.25
2022-11-05T13:12:25.361Z,99341.03
2022-11-05T13:18:33.745Z,99338.81
2022-11-05T13:21:21.015Z,99342.34
2022-11-05T13:24:21.503Z,99339.09
2022-11-05T13:27:38.543Z,99343.78
2022-11-05T13:30:34.210Z,99355.22
2022-11-05T13:33:24.553Z,99358.94
2022-11-05T13:36:48.016Z,99359.53
2022-11-05T13:39:43.552Z,99343.94
2022-11-05T13:42:36.271Z,99351.53
2022-11-05T13:45:24.514Z,99349.38
2022-11-05T13:48:24.729Z,99344.41
2022-11-05T13:51:17.879Z,99343.75
2022-11-05T13:54:12.728Z,99348.25
2022-11-05T13:57:06.788Z,99355.34
2022-11-05T13:59:55.468Z,99355.66
2022-11-05T14:02:45.815Z,99354.38
2022-11-05T14:05:38.673Z,99349.81
2022-11-05T14:08:29.875Z,99351.00
2022-11-05T14:11:27.643Z,99352.84
2022-11-05T14:14:20.761Z,99352.47
2022-11-05T14:17:07.608Z,99367.41
2022-11-05T14:20:05.096Z,99354.41
2022-11-05T14:22:54.068Z,99352.22
2022-11-05T14:25:42.041Z,99357.16
2022-11-05T14:28:36.472Z,99363.66
2022-11-05T14:32:07.877Z,99360.25
2022-11-05T14:35:01.856Z,99356.47
2022-11-05T14:37:55.522Z,99362.97
2022-11-05T14:40:46.543Z,99368.63
2022-11-05T14:43:37.561Z,99372.66
2022-11-05T14:46:26.661Z,99378.81
2022-11-05T14:49:18.932Z,99381.09
2022-11-05T14:52:06.822Z,99386.91
2022-11-05T14:54:59.507Z,99389.88
2022-11-05T14:57:55.047Z,99384.97
2022-11-05T15:00:48.732Z,99391.69
2022-11-05T15:04:01.889Z,99398.66
2022-11-05T15:07:01.824Z,99396.53
2022-11-05T15:09:54.489Z,99403.12
2022-11-05T15:13:00.587Z,99401.63
2022-11-05T15:15:57.031Z,99399.03
2022-11-05T15:18:51.575Z,99403.81
2022-11-05T15:21:45.573Z,99417.59
2022-11-05T15:24:35.583Z,99413.34
2022-11-05T15:27:31.829Z,99405.00
2022-11-05T15:30:20.069Z,99417.25
2022-11-05T15:33:20.827Z,99417.16
2022-11-05T15:36:15.608Z,99425.44
2022-11-05T15:39:28.539Z,99422.16
2022-11-05T15:42:23.046Z,99426.97
2022-11-05T15:45:19.869Z,99424.13
2022-11-05T15:48:16.653Z,99438.00
2022-11-05T15:51:11.827Z,99439.91
2022-11-05T15:54:28.936Z,99434.09
2022-11-05T15:57:26.707Z,99431.84
2022-11-05T16:00:18.832Z,99429.53
2022-11-05T16:03:18.678Z,99431.84
2022-11-05T16:06:11.235Z,99434.78
2022-11-05T16:12:16.859Z,99454.78
2022-11-05T16:15:08.737Z,99460.56
2022-11-05T16:17:55.802Z,99464.25
2022-11-05T16:21:04.537Z,99463.78
2022-11-05T16:24:05.343Z,99467.16
2022-11-05T16:27:05.856Z,99470.94
2022-11-05T16:29:55.531Z,99471.31
2022-11-05T16:32:46.823Z,99473.69
2022-11-05T16:35:51.804Z,99480.09
2022-11-05T16:38:45.569Z,99481.38
2022-11-05T16:41:35.910Z,99491.03
2022-11-05T16:44:29.763Z,99493.03
2022-11-05T16:47:26.577Z,99490.00
2022-11-05T16:50:19.841Z,99504.94
2022-11-05T16:53:07.514Z,99511.16
2022-11-05T16:56:01.407Z,99508.44
2022-11-05T16:59:06.632Z,99512.91
2022-11-05T17:01:55.969Z,99514.28
2022-11-05T17:04:43.732Z,99515.44
2022-11-05T17:07:41.528Z,99518.50
2022-11-05T17:10:29.046Z,99520.81
2022-11-05T17:13:26.745Z,99513.28
2022-11-05T17:16:14.336Z,99526.53
2022-11-05T17:22:17.612Z,99526.94
2022-11-05T17:25:08.948Z,99521.53
2022-11-05T17:28:02.723Z,99523.78
2022-11-05T17:30:53.142Z,99526.75
2022-11-05T17:33:47.948Z,99521.63
2022-11-05T17:36:38.611Z,99537.63
2022-11-05T17:39:31.258Z,99531.31
2022-11-05T17:42:26.568Z,99537.41
2022-11-05T17:45:18.815Z,99536.06
2022-11-05T17:48:09.636Z,99534.34
2022-11-05T17:51:07.705Z,99534.69
2022-11-05T17:53:57.464Z,99545.22
2022-11-05T17:56:57.880Z,99544.06
2022-11-05T17:59:58.652Z,99542.88
2022-11-05T18:05:52.730Z,99548.97
2022-11-05T18:08:39.701Z,99557.16
2022-11-05T18:11:30.022Z,99554.22
2022-11-05T18:14:25.574Z,99549.34
2022-11-05T18:17:19.541Z,99547.09
2022-11-05T18:20:11.608Z,99557.78
2022-11-05T18:23:02.987Z,99561.78
2022-11-05T18:25:50.899Z,99569.41
2022-11-05T18:28:38.851Z,99568.44
2022-11-05T18:31:41.566Z,99570.28
2022-11-05T18:34:29.893Z,99581.19
2022-11-05T18:37:24.560Z,99589.84
2022-11-05T18:40:16.851Z,99589.72
2022-11-05T18:43:15.706Z,99599.53
2022-11-05T18:46:03.719Z,99599.56
2022-11-05T18:48:50.534Z,99596.97
2022-11-05T18:54:40.798Z,99604.97
2022-11-05T18:57:29.548Z,99603.84
2022-11-05T19:00:17.246Z,99614.06
2022-11-05T19:03:06.011Z,99612.84
2022-11-05T19:05:54.725Z,99621.38
2022-11-05T19:08:53.872Z,99621.91
2022-11-05T19:14:38.665Z,99626.53
2022-11-05T19:17:30.838Z,99626.84
2022-11-05T19:20:37.586Z,99632.88
2022-11-05T19:23:28.610Z,99636.06
2022-11-05T19:29:18.343Z,99646.38
2022-11-05T19:35:14.597Z,99649.13
2022-11-05T19:38:12.044Z,99660.44
2022-11-05T19:44:05.582Z,99661.16
2022-11-05T19:46:57.371Z,99663.38
2022-11-05T19:49:51.197Z,99669.31
2022-11-05T19:52:39.306Z,99675.19
2022-11-05T19:55:39.652Z,99680.03
2022-11-05T19:58:29.839Z,99687.06
2022-11-05T20:01:21.715Z,99682.47
2022-11-05T20:04:15.564Z,99696.19
2022-11-05T20:09:58.023Z,99693.25
2022-11-05T20:12:53.093Z,99700.22
2022-11-05T20:18:47.983Z,99710.34
2022-11-05T20:21:37.996Z,99715.03
2022-11-05T20:24:25.766Z,99719.06
2022-11-05T20:27:11.921Z,99717.72
2022-11-05T20:30:11.560Z,99718.25
2022-11-05T20:33:08.894Z,99716.22
2022-11-05T20:36:02.552Z,99721.97
2022-11-05T20:38:58.082Z,99729.84
2022-11-05T20:41:48.563Z,99731.12
2022-11-05T20:44:52.703Z,99733.53
2022-11-05T20:47:40.582Z,99726.44
2022-11-05T20:50:29.669Z,99733.84
2022-11-05T20:53:25.902Z,99735.16
2022-11-05T20:56:22.850Z,99734.31
2022-11-05T20:59:17.863Z,99735.56
2022-11-05T21:08:05.514Z,99750.47
2022-11-05T21:10:54.113Z,99747.94
2022-11-05T21:13:43.748Z,99744.19
2022-11-05T21:16:41.069Z,99747.44
2022-11-05T21:19:32.527Z,99752.69
2022-11-05T21:22:21.534Z,99745.12
2022-11-05T21:25:08.607Z,99749.66
2022-11-05T21:27:56.323Z,99754.38
2022-11-05T21:31:00.514Z,99751.06
2022-11-05T21:33:55.261Z,99753.81
2022-11-05T21:36:43.891Z,99756.03
2022-11-05T21:39:36.825Z,99758.75
2022-11-05T21:42:26.691Z,99751.72
2022-11-05T21:45:23.452Z,99758.75
2022-11-05T21:48:15.868Z,99762.44
2022-11-05T21:51:29.480Z,99763.69
2022-11-05T21:54:35.606Z,99762.50
2022-11-05T21:57:43.512Z,99758.88
2022-11-05T22:00:30.088Z,99755.88
2022-11-05T22:03:17.081Z,99763.09
2022-11-05T22:06:11.197Z,99759.56
2022-11-05T22:08:57.668Z,99755.63
2022-11-05T22:11:44.175Z,99763.69
2022-11-05T22:14:30.900Z,99764.87
2022-11-05T22:17:18.387Z,99759.00
2022-11-05T22:20:08.478Z,99763.09
2022-11-05T22:22:55.096Z,99757.47
2022-11-05T22:25:41.696Z,99767.16
2022-11-05T22:28:27.712Z,99760.00
2022-11-05T22:31:18.200Z,99763.09
2022-11-05T22:34:06.665Z,99760.53
2022-11-05T22:36:54.458Z,99772.37
2022-11-05T22:39:48.869Z,99763.09
2022-11-05T22:42:34.961Z,99769.16
2022-11-05T22:45:21.776Z,99773.78
2022-11-05T22:48:10.384Z,99763.84
2022-11-05T22:51:06.738Z,99771.50
2022-11-05T22:53:57.310Z,99774.38
2022-11-05T22:56:47.721Z,99773.47
2022-11-05T22:59:38.524Z,99770.75
2022-11-05T23:02:26.662Z,99777.47
2022-11-05T23:05:15.902Z,99776.53
2022-11-05T23:08:20.770Z,99774.06
2022-11-05T23:11:28.334Z,99780.97
2022-11-05T23:14:15.959Z,99779.63
2022-11-05T23:17:21.561Z,99773.59
2022-11-05T23:20:27.681Z,99783.25
2022-11-05T23:23:32.813Z,99784.34
2022-11-05T23:26:37.811Z,99778.88
2022-11-05T23:29:29.442Z,99782.50
2022-11-05T23:32:24.337Z,99791.16
2022-11-05T23:35:11.823Z,99782.22
2022-11-05T23:38:16.619Z,99795.03
2022-11-05T23:41:22.844Z,99789.91
2022-11-05T23:44:29.522Z,99789.28
2022-11-05T23:47:36.521Z,99792.31
2022-11-05T23:50:22.867Z,99799.06
2022-11-05T23:53:10.117Z,99805.03
2022-11-05T23:56:09.368Z,99796.09
2022-11-05T23:58:57.103Z,99795.34
